sensor_id;sensor_type;location;lat;lon;timestamp;pressure;altitude;pressure_sealevel;temperature;humidity
48424;BME280;34232;42.502;26.014;2024-02-21T00:00:15;100872.16;;;8.11;78.11
48424;BME280;34232;42.502;26.014;2024-02-21T00:02:42;100872.78;;;8.15;77.72
48424;BME280;34232;42.502;26.014;2024-02-21T00:05:07;100873.06;;;8.10;77.66
48424;BME280;34232;42.502;26.014;2024-02-21T00:07:32;100866.28;;;7.92;78.51
48424;BME280;34232;42.502;26.014;2024-02-21T00:09:58;100858.94;;;7.83;79.01
48424;BME280;34232;42.502;26.014;2024-02-21T00:12:23;100857.63;;;7.76;79.97
48424;BME280;34232;42.502;26.014;2024-02-21T00:14:48;100859.50;;;7.73;80.39
48424;BME280;34232;42.502;26.014;2024-02-21T00:17:14;100862.94;;;7.74;81.13
48424;BME280;34232;42.502;26.014;2024-02-21T00:19:39;100853.31;;;7.75;81.19
48424;BME280;34232;42.502;26.014;2024-02-21T00:22:04;100853.78;;;7.81;80.80
48424;BME280;34232;42.502;26.014;2024-02-21T00:24:30;100861.34;;;7.71;81.62
48424;BME280;34232;42.502;26.014;2024-02-21T00:26:55;100862.19;;;7.72;81.89
48424;BME280;34232;42.502;26.014;2024-02-21T00:29:20;100849.94;;;7.72;81.70
48424;BME280;34232;42.502;26.014;2024-02-21T00:31:45;100849.19;;;7.70;82.30
48424;BME280;34232;42.502;26.014;2024-02-21T00:34:11;100850.03;;;7.71;82.06
48424;BME280;34232;42.502;26.014;2024-02-21T00:36:37;100849.69;;;7.77;82.32
48424;BME280;34232;42.502;26.014;2024-02-21T00:39:03;100850.91;;;7.86;82.48
48424;BME280;34232;42.502;26.014;2024-02-21T00:41:29;100853.00;;;7.95;82.37
48424;BME280;34232;42.502;26.014;2024-02-21T00:43:54;100851.69;;;8.02;81.39
48424;BME280;34232;42.502;26.014;2024-02-21T00:46:19;100850.50;;;8.07;81.31
48424;BME280;34232;42.502;26.014;2024-02-21T00:48:45;100854.63;;;8.12;81.02
48424;BME280;34232;42.502;26.014;2024-02-21T00:51:10;100847.22;;;8.18;80.68
48424;BME280;34232;42.502;26.014;2024-02-21T00:53:35;100854.16;;;8.19;80.57
48424;BME280;34232;42.502;26.014;2024-02-21T00:56:04;100849.50;;;8.24;80.60
48424;BME280;34232;42.502;26.014;2024-02-21T00:58:30;100849.31;;;8.27;80.31
48424;BME280;34232;42.502;26.014;2024-02-21T01:00:55;100845.56;;;8.31;80.44
48424;BME280;34232;42.502;26.014;2024-02-21T01:03:20;100847.28;;;8.32;80.35
48424;BME280;34232;42.502;26.014;2024-02-21T01:05:46;100845.22;;;8.37;80.16
48424;BME280;34232;42.502;26.014;2024-02-21T01:08:11;100851.13;;;8.41;79.72
48424;BME280;34232;42.502;26.014;2024-02-21T01:10:36;100849.28;;;8.43;79.78
48424;BME280;34232;42.502;26.014;2024-02-21T01:13:02;100850.13;;;8.44;79.61
48424;BME280;34232;42.502;26.014;2024-02-21T01:15:27;100845.41;;;8.34;79.80
48424;BME280;34232;42.502;26.014;2024-02-21T01:17:52;100847.97;;;8.20;80.42
48424;BME280;34232;42.502;26.014;2024-02-21T01:20:20;100836.72;;;8.04;81.10
48424;BME280;34232;42.502;26.014;2024-02-21T01:22:45;100836.78;;;7.88;82.84
48424;BME280;34232;42.502;26.014;2024-02-21T01:25:10;100830.00;;;7.70;84.46
48424;BME280;34232;42.502;26.014;2024-02-21T01:27:36;100831.13;;;7.50;84.96
48424;BME280;34232;42.502;26.014;2024-02-21T01:30:01;100835.94;;;7.58;85.45
48424;BME280;34232;42.502;26.014;2024-02-21T01:32:26;100837.16;;;7.66;86.24
48424;BME280;34232;42.502;26.014;2024-02-21T01:34:52;100836.84;;;7.72;86.12
48424;BME280;34232;42.502;26.014;2024-02-21T01:37:17;100835.44;;;7.81;84.75
48424;BME280;34232;42.502;26.014;2024-02-21T01:39:42;100832.56;;;7.86;84.68
48424;BME280;34232;42.502;26.014;2024-02-21T01:42:07;100832.38;;;7.89;84.06
48424;BME280;34232;42.502;26.014;2024-02-21T01:44:34;100828.44;;;7.96;84.11
48424;BME280;34232;42.502;26.014;2024-02-21T01:46:59;100836.91;;;8.01;83.55
48424;BME280;34232;42.502;26.014;2024-02-21T01:49:24;100833.16;;;8.05;82.83
48424;BME280;34232;42.502;26.014;2024-02-21T01:51:50;100831.66;;;8.01;83.37
48424;BME280;34232;42.502;26.014;2024-02-21T01:54:16;100827.50;;;7.83;83.90
48424;BME280;34232;42.502;26.014;2024-02-21T01:56:42;100828.81;;;7.76;84.47
48424;BME280;34232;42.502;26.014;2024-02-21T01:59:08;100821.69;;;7.78;84.62
48424;BME280;34232;42.502;26.014;2024-02-21T02:01:33;100822.97;;;7.70;85.35
48424;BME280;34232;42.502;26.014;2024-02-21T02:03:59;100805.19;;;7.61;85.63
48424;BME280;34232;42.502;26.014;2024-02-21T02:06:24;100802.84;;;7.41;87.38
48424;BME280;34232;42.502;26.014;2024-02-21T02:08:49;100804.75;;;7.23;87.75
48424;BME280;34232;42.502;26.014;2024-02-21T02:11:15;100800.44;;;7.07;89.61
48424;BME280;34232;42.502;26.014;2024-02-21T02:13:41;100797.75;;;6.92;90.38
48424;BME280;34232;42.502;26.014;2024-02-21T02:16:06;100800.44;;;6.75;91.48
48424;BME280;34232;42.502;26.014;2024-02-21T02:18:31;100813.78;;;6.86;91.78
48424;BME280;34232;42.502;26.014;2024-02-21T02:20:56;100821.72;;;7.00;92.49
48424;BME280;34232;42.502;26.014;2024-02-21T02:23:23;100831.34;;;7.16;92.10
48424;BME280;34232;42.502;26.014;2024-02-21T02:25:49;100827.84;;;7.31;91.82
48424;BME280;34232;42.502;26.014;2024-02-21T02:28:17;100825.41;;;7.44;90.91
48424;BME280;34232;42.502;26.014;2024-02-21T02:30:42;100823.84;;;7.55;89.85
48424;BME280;34232;42.502;26.014;2024-02-21T02:33:08;100824.25;;;7.63;88.75
48424;BME280;34232;42.502;26.014;2024-02-21T02:35:33;100820.25;;;7.72;87.96
48424;BME280;34232;42.502;26.014;2024-02-21T02:38:01;100818.88;;;7.81;87.89
48424;BME280;34232;42.502;26.014;2024-02-21T02:40:26;100822.06;;;7.86;87.14
48424;BME280;34232;42.502;26.014;2024-02-21T02:42:52;100821.91;;;7.89;86.77
48424;BME280;34232;42.502;26.014;2024-02-21T02:45:20;100826.03;;;7.93;86.84
48424;BME280;34232;42.502;26.014;2024-02-21T02:47:47;100828.28;;;7.99;86.11
48424;BME280;34232;42.502;26.014;2024-02-21T02:50:13;100822.84;;;8.02;85.10
48424;BME280;34232;42.502;26.014;2024-02-21T02:52:38;100815.75;;;8.04;84.81
48424;BME280;34232;42.502;26.014;2024-02-21T02:55:04;100819.13;;;8.06;84.73
48424;BME280;34232;42.502;26.014;2024-02-21T02:57:29;100818.94;;;8.09;84.83
48424;BME280;34232;42.502;26.014;2024-02-21T02:59:54;100819.44;;;7.86;84.99
48424;BME280;34232;42.502;26.014;2024-02-21T03:02:20;100812.69;;;7.52;87.23
48424;BME280;34232;42.502;26.014;2024-02-21T03:04:45;100812.56;;;7.39;88.17
48424;BME280;34232;42.502;26.014;2024-02-21T03:07:11;100811.31;;;7.46;88.66
48424;BME280;34232;42.502;26.014;2024-02-21T03:09:39;100807.63;;;7.49;88.32
48424;BME280;34232;42.502;26.014;2024-02-21T03:12:05;100808.13;;;7.55;88.34
48424;BME280;34232;42.502;26.014;2024-02-21T03:14:30;100798.34;;;7.59;87.92
48424;BME280;34232;42.502;26.014;2024-02-21T03:16:56;100805.81;;;7.65;87.84
48424;BME280;34232;42.502;26.014;2024-02-21T03:19:21;100806.31;;;7.71;87.56
48424;BME280;34232;42.502;26.014;2024-02-21T03:21:47;100807.16;;;7.72;87.16
48424;BME280;34232;42.502;26.014;2024-02-21T03:24:13;100808.94;;;7.71;87.35
48424;BME280;34232;42.502;26.014;2024-02-21T03:26:38;100815.69;;;7.76;87.69
48424;BME280;34232;42.502;26.014;2024-02-21T03:29:03;100811.94;;;7.80;87.72
48424;BME280;34232;42.502;26.014;2024-02-21T03:31:29;100813.44;;;7.84;87.42
48424;BME280;34232;42.502;26.014;2024-02-21T03:33:54;100817.50;;;7.89;87.24
48424;BME280;34232;42.502;26.014;2024-02-21T03:36:19;100817.41;;;7.91;87.28
48424;BME280;34232;42.502;26.014;2024-02-21T03:38:45;100821.34;;;7.98;87.35
48424;BME280;34232;42.502;26.014;2024-02-21T03:41:10;100825.56;;;8.00;86.32
48424;BME280;34232;42.502;26.014;2024-02-21T03:43:37;100827.34;;;8.00;85.50
48424;BME280;34232;42.502;26.014;2024-02-21T03:46:02;100827.44;;;7.98;85.97
48424;BME280;34232;42.502;26.014;2024-02-21T03:48:28;100832.56;;;7.86;86.33
48424;BME280;34232;42.502;26.014;2024-02-21T03:50:53;100830.25;;;7.65;87.33
48424;BME280;34232;42.502;26.014;2024-02-21T03:53:18;100827.88;;;7.77;87.84
48424;BME280;34232;42.502;26.014;2024-02-21T03:55:43;100828.41;;;7.82;87.26
48424;BME280;34232;42.502;26.014;2024-02-21T03:58:09;100825.63;;;7.85;86.69
48424;BME280;34232;42.502;26.014;2024-02-21T04:00:34;100826.28;;;7.88;86.63
48424;BME280;34232;42.502;26.014;2024-02-21T04:02:59;100816.56;;;7.90;86.88
48424;BME280;34232;42.502;26.014;2024-02-21T04:05:24;100823.75;;;7.87;86.48
48424;BME280;34232;42.502;26.014;2024-02-21T04:07:50;100820.38;;;7.85;86.68
48424;BME280;34232;42.502;26.014;2024-02-21T04:10:17;100819.38;;;7.87;86.42
48424;BME280;34232;42.502;26.014;2024-02-21T04:12:42;100820.97;;;7.90;85.92
48424;BME280;34232;42.502;26.014;2024-02-21T04:17:38;100814.88;;;7.89;86.04
48424;BME280;34232;42.502;26.014;2024-02-21T04:20:04;100817.25;;;7.94;85.94
48424;BME280;34232;42.502;26.014;2024-02-21T04:22:30;100820.59;;;7.96;84.78
48424;BME280;34232;42.502;26.014;2024-02-21T04:24:56;100817.03;;;7.97;84.46
48424;BME280;34232;42.502;26.014;2024-02-21T04:27:21;100817.97;;;7.96;84.05
48424;BME280;34232;42.502;26.014;2024-02-21T04:29:47;100821.22;;;7.85;84.85
48424;BME280;34232;42.502;26.014;2024-02-21T04:32:13;100818.41;;;7.74;84.89
48424;BME280;34232;42.502;26.014;2024-02-21T04:34:38;100817.66;;;7.72;85.48
48424;BME280;34232;42.502;26.014;2024-02-21T04:37:05;100823.38;;;7.79;84.79
48424;BME280;34232;42.502;26.014;2024-02-21T04:39:31;100819.72;;;7.81;84.59
48424;BME280;34232;42.502;26.014;2024-02-21T04:41:56;100829.09;;;7.85;84.18
48424;BME280;34232;42.502;26.014;2024-02-21T04:44:21;100832.56;;;7.86;83.36
48424;BME280;34232;42.502;26.014;2024-02-21T04:46:47;100841.34;;;7.85;83.30
48424;BME280;34232;42.502;26.014;2024-02-21T04:49:12;100831.72;;;7.85;83.13
48424;BME280;34232;42.502;26.014;2024-02-21T04:51:39;100835.09;;;7.87;83.76
48424;BME280;34232;42.502;26.014;2024-02-21T04:54:04;100834.59;;;7.81;82.96
48424;BME280;34232;42.502;26.014;2024-02-21T04:56:29;100841.91;;;7.76;83.15
48424;BME280;34232;42.502;26.014;2024-02-21T04:58:55;100845.41;;;7.60;83.73
48424;BME280;34232;42.502;26.014;2024-02-21T05:01:20;100850.22;;;7.52;83.55
48424;BME280;34232;42.502;26.014;2024-02-21T05:03:45;100842.63;;;7.48;83.96
48424;BME280;34232;42.502;26.014;2024-02-21T05:06:10;100845.34;;;7.46;83.85
48424;BME280;34232;42.502;26.014;2024-02-21T05:08:36;100847.97;;;7.46;83.51
48424;BME280;34232;42.502;26.014;2024-02-21T05:11:01;100845.69;;;7.40;83.03
48424;BME280;34232;42.502;26.014;2024-02-21T05:13:26;100849.25;;;7.39;82.26
48424;BME280;34232;42.502;26.014;2024-02-21T05:15:52;100848.25;;;7.10;82.42
48424;BME280;34232;42.502;26.014;2024-02-21T05:18:17;100852.13;;;7.03;83.60
48424;BME280;34232;42.502;26.014;2024-02-21T05:20:42;100858.38;;;7.00;83.75
48424;BME280;34232;42.502;26.014;2024-02-21T05:23:08;100857.34;;;7.03;84.25
48424;BME280;34232;42.502;26.014;2024-02-21T05:25:33;100869.44;;;7.06;84.86
48424;BME280;34232;42.502;26.014;2024-02-21T05:27:58;100865.56;;;7.13;85.55
48424;BME280;34232;42.502;26.014;2024-02-21T05:30:27;100877.97;;;7.09;85.52
48424;BME280;34232;42.502;26.014;2024-02-21T05:32:52;100882.84;;;7.15;85.49
48424;BME280;34232;42.502;26.014;2024-02-21T05:35:17;100882.63;;;7.20;85.45
48424;BME280;34232;42.502;26.014;2024-02-21T05:37:43;100879.06;;;7.21;85.29
48424;BME280;34232;42.502;26.014;2024-02-21T05:40:08;100887.94;;;7.18;84.82
48424;BME280;34232;42.502;26.014;2024-02-21T05:42:33;100891.41;;;7.19;84.26
48424;BME280;34232;42.502;26.014;2024-02-21T05:44:59;100887.34;;;7.13;83.72
48424;BME280;34232;42.502;26.014;2024-02-21T05:47:24;100887.16;;;7.16;82.82
48424;BME280;34232;42.502;26.014;2024-02-21T05:49:49;100887.25;;;7.15;82.39
48424;BME280;34232;42.502;26.014;2024-02-21T05:52:18;100883.03;;;7.12;82.91
48424;BME280;34232;42.502;26.014;2024-02-21T05:54:43;100892.69;;;7.12;83.17
48424;BME280;34232;42.502;26.014;2024-02-21T05:57:09;100882.28;;;7.10;83.55
48424;BME280;34232;42.502;26.014;2024-02-21T05:59:34;100890.97;;;7.11;84.11
48424;BME280;34232;42.502;26.014;2024-02-21T06:02:01;100890.97;;;7.11;84.14
48424;BME280;34232;42.502;26.014;2024-02-21T06:04:29;100894.53;;;7.10;84.21
48424;BME280;34232;42.502;26.014;2024-02-21T06:06:54;100899.91;;;7.07;83.36
48424;BME280;34232;42.502;26.014;2024-02-21T06:09:19;100892.81;;;6.93;84.57
48424;BME280;34232;42.502;26.014;2024-02-21T06:11:44;100901.22;;;6.82;85.09
48424;BME280;34232;42.502;26.014;2024-02-21T06:14:11;100901.41;;;6.79;85.78
48424;BME280;34232;42.502;26.014;2024-02-21T06:16:36;100898.34;;;6.71;85.95
48424;BME280;34232;42.502;26.014;2024-02-21T06:19:02;100905.13;;;6.75;86.51
48424;BME280;34232;42.502;26.014;2024-02-21T06:21:31;100904.09;;;6.78;87.13
48424;BME280;34232;42.502;26.014;2024-02-21T06:23:56;100915.06;;;6.84;87.57
48424;BME280;34232;42.502;26.014;2024-02-21T06:26:21;100918.00;;;6.95;88.14
48424;BME280;34232;42.502;26.014;2024-02-21T06:28:46;100920.88;;;7.07;87.56
48424;BME280;34232;42.502;26.014;2024-02-21T06:31:12;100916.81;;;7.17;87.69
48424;BME280;34232;42.502;26.014;2024-02-21T06:33:37;100925.88;;;7.27;87.54
48424;BME280;34232;42.502;26.014;2024-02-21T06:36:02;100925.13;;;7.41;87.01
48424;BME280;34232;42.502;26.014;2024-02-21T06:38:28;100920.19;;;7.50;87.02
48424;BME280;34232;42.502;26.014;2024-02-21T06:40:53;100914.63;;;7.56;86.79
48424;BME280;34232;42.502;26.014;2024-02-21T06:43:20;100920.84;;;7.69;86.72
48424;BME280;34232;42.502;26.014;2024-02-21T06:45:45;100921.50;;;7.89;86.13
48424;BME280;34232;42.502;26.014;2024-02-21T06:48:15;100917.28;;;7.86;84.06
48424;BME280;34232;42.502;26.014;2024-02-21T06:50:41;100926.56;;;7.92;84.45
48424;BME280;34232;42.502;26.014;2024-02-21T06:53:06;100922.13;;;8.08;84.33
48424;BME280;34232;42.502;26.014;2024-02-21T06:55:31;100915.81;;;8.26;84.90
48424;BME280;34232;42.502;26.014;2024-02-21T06:57:57;100919.72;;;8.49;83.89
48424;BME280;34232;42.502;26.014;2024-02-21T07:00:22;100916.66;;;8.57;82.69
48424;BME280;34232;42.502;26.014;2024-02-21T07:02:48;100922.75;;;8.71;81.86
48424;BME280;34232;42.502;26.014;2024-02-21T07:05:13;100919.66;;;8.79;81.69
48424;BME280;34232;42.502;26.014;2024-02-21T07:07:38;100920.97;;;9.00;81.57
48424;BME280;34232;42.502;26.014;2024-02-21T07:10:05;100911.19;;;9.17;80.79
48424;BME280;34232;42.502;26.014;2024-02-21T07:12:31;100920.75;;;9.18;79.63
48424;BME280;34232;42.502;26.014;2024-02-21T07:14:56;100910.97;;;9.34;78.90
48424;BME280;34232;42.502;26.014;2024-02-21T07:17:24;100917.09;;;9.20;77.07
48424;BME280;34232;42.502;26.014;2024-02-21T07:19:50;100918.69;;;9.23;76.87
48424;BME280;34232;42.502;26.014;2024-02-21T07:22:15;100909.28;;;9.33;78.21
48424;BME280;34232;42.502;26.014;2024-02-21T07:24:40;100911.16;;;9.31;77.29
48424;BME280;34232;42.502;26.014;2024-02-21T07:27:05;100922.69;;;9.28;77.15
48424;BME280;34232;42.502;26.014;2024-02-21T07:29:31;100917.44;;;9.28;77.85
48424;BME280;34232;42.502;26.014;2024-02-21T07:31:56;100911.31;;;9.42;78.04
48424;BME280;34232;42.502;26.014;2024-02-21T07:34:21;100920.31;;;9.52;75.87
48424;BME280;34232;42.502;26.014;2024-02-21T07:36:47;100925.56;;;9.52;75.88
48424;BME280;34232;42.502;26.014;2024-02-21T07:39:12;100918.63;;;9.51;74.88
48424;BME280;34232;42.502;26.014;2024-02-21T07:41:37;100918.09;;;9.73;75.21
48424;BME280;34232;42.502;26.014;2024-02-21T07:44:04;100917.97;;;9.74;75.05
48424;BME280;34232;42.502;26.014;2024-02-21T07:46:30;100920.69;;;10.00;73.61
48424;BME280;34232;42.502;26.014;2024-02-21T07:48:55;100927.03;;;10.10;72.18
48424;BME280;34232;42.502;26.014;2024-02-21T07:51:20;100925.56;;;10.06;72.37
48424;BME280;34232;42.502;26.014;2024-02-21T07:53:46;100925.44;;;10.34;72.50
48424;BME280;34232;42.502;26.014;2024-02-21T07:56:12;100922.16;;;10.43;70.50
48424;BME280;34232;42.502;26.014;2024-02-21T07:58:37;100918.91;;;10.65;70.46
48424;BME280;34232;42.502;26.014;2024-02-21T08:01:03;100919.56;;;10.69;69.92
48424;BME280;34232;42.502;26.014;2024-02-21T08:03:28;100917.22;;;10.77;69.75
48424;BME280;34232;42.502;26.014;2024-02-21T08:05:54;100915.41;;;10.90;69.53
48424;BME280;34232;42.502;26.014;2024-02-21T08:08:19;100907.69;;;11.12;68.41
48424;BME280;34232;42.502;26.014;2024-02-21T08:10:47;100904.06;;;11.26;69.58
48424;BME280;34232;42.502;26.014;2024-02-21T08:13:12;100902.00;;;11.42;67.68
48424;BME280;34232;42.502;26.014;2024-02-21T08:15:37;100897.81;;;11.64;67.07
48424;BME280;34232;42.502;26.014;2024-02-21T08:18:04;100895.00;;;11.54;66.10
48424;BME280;34232;42.502;26.014;2024-02-21T08:20:30;100899.09;;;11.58;65.63
48424;BME280;34232;42.502;26.014;2024-02-21T08:22:55;100894.75;;;11.94;64.95
48424;BME280;34232;42.502;26.014;2024-02-21T08:25:20;100899.72;;;11.85;63.95
48424;BME280;34232;42.502;26.014;2024-02-21T08:27:46;100890.94;;;11.98;63.26
48424;BME280;34232;42.502;26.014;2024-02-21T08:30:11;100886.78;;;11.82;63.23
48424;BME280;34232;42.502;26.014;2024-02-21T08:32:37;100889.59;;;12.03;63.13
48424;BME280;34232;42.502;26.014;2024-02-21T08:35:02;100889.28;;;12.19;62.47
48424;BME280;34232;42.502;26.014;2024-02-21T08:37:28;100890.53;;;12.26;63.28
48424;BME280;34232;42.502;26.014;2024-02-21T08:39:53;100876.88;;;12.54;62.59
48424;BME280;34232;42.502;26.014;2024-02-21T08:42:19;100890.34;;;12.74;61.56
48424;BME280;34232;42.502;26.014;2024-02-21T08:44:44;100885.66;;;13.00;59.08
48424;BME280;34232;42.502;26.014;2024-02-21T08:47:10;100888.06;;;13.14;59.96
48424;BME280;34232;42.502;26.014;2024-02-21T08:49:36;100880.25;;;13.12;58.49
48424;BME280;34232;42.502;26.014;2024-02-21T08:52:02;100888.63;;;13.40;58.93
48424;BME280;34232;42.502;26.014;2024-02-21T08:54:28;100893.53;;;13.55;58.06
48424;BME280;34232;42.502;26.014;2024-02-21T08:56:54;100889.00;;;13.78;56.83
48424;BME280;34232;42.502;26.014;2024-02-21T08:59:19;100897.91;;;13.77;57.16
48424;BME280;34232;42.502;26.014;2024-02-21T09:01:45;100894.25;;;13.57;57.30
48424;BME280;34232;42.502;26.014;2024-02-21T09:04:10;100887.63;;;13.52;56.96
48424;BME280;34232;42.502;26.014;2024-02-21T09:06:36;100903.34;;;13.64;56.94
48424;BME280;34232;42.502;26.014;2024-02-21T09:09:04;100901.84;;;13.83;56.50
48424;BME280;34232;42.502;26.014;2024-02-21T09:11:29;100897.31;;;14.06;55.35
48424;BME280;34232;42.502;26.014;2024-02-21T09:13:55;100900.16;;;14.34;53.48
48424;BME280;34232;42.502;26.014;2024-02-21T09:16:20;100903.00;;;14.63;52.92
48424;BME280;34232;42.502;26.014;2024-02-21T09:18:45;100893.91;;;14.87;51.78
48424;BME280;34232;42.502;26.014;2024-02-21T09:21:11;100891.91;;;14.79;52.79
48424;BME280;34232;42.502;26.014;2024-02-21T09:23:37;100895.53;;;14.78;52.36
48424;BME280;34232;42.502;26.014;2024-02-21T09:26:02;100889.31;;;14.89;51.95
48424;BME280;34232;42.502;26.014;2024-02-21T09:28:29;100883.06;;;14.99;52.00
48424;BME280;34232;42.502;26.014;2024-02-21T09:30:54;100888.09;;;15.02;51.25
48424;BME280;34232;42.502;26.014;2024-02-21T09:33:20;100890.41;;;15.26;50.67
48424;BME280;34232;42.502;26.014;2024-02-21T09:35:45;100880.13;;;15.52;50.04
48424;BME280;34232;42.502;26.014;2024-02-21T09:38:10;100885.75;;;15.68;50.35
48424;BME280;34232;42.502;26.014;2024-02-21T09:40:35;100884.94;;;15.87;48.34
48424;BME280;34232;42.502;26.014;2024-02-21T09:43:03;100878.22;;;16.02;47.77
48424;BME280;34232;42.502;26.014;2024-02-21T09:45:30;100878.59;;;15.50;49.51
48424;BME280;34232;42.502;26.014;2024-02-21T09:50:23;100877.09;;;15.57;48.31
48424;BME280;34232;42.502;26.014;2024-02-21T09:52:50;100877.22;;;15.65;48.64
48424;BME280;34232;42.502;26.014;2024-02-21T09:55:16;100864.91;;;15.54;48.18
48424;BME280;34232;42.502;26.014;2024-02-21T09:57:43;100866.56;;;15.46;47.98
48424;BME280;34232;42.502;26.014;2024-02-21T10:00:09;100863.41;;;15.71;48.31
48424;BME280;34232;42.502;26.014;2024-02-21T10:02:35;100865.84;;;15.34;47.24
48424;BME280;34232;42.502;26.014;2024-02-21T10:05:00;100866.47;;;15.57;47.05
48424;BME280;34232;42.502;26.014;2024-02-21T10:07:25;100860.59;;;15.63;47.15
48424;BME280;34232;42.502;26.014;2024-02-21T10:10:00;100849.16;;;15.62;47.76
48424;BME280;34232;42.502;26.014;2024-02-21T10:12:26;100852.19;;;15.38;47.39
48424;BME280;34232;42.502;26.014;2024-02-21T10:14:59;100851.78;;;15.53;47.51
48424;BME280;34232;42.502;26.014;2024-02-21T10:17:25;100853.63;;;15.62;47.69
48424;BME280;34232;42.502;26.014;2024-02-21T10:19:50;100845.09;;;15.68;47.76
48424;BME280;34232;42.502;26.014;2024-02-21T10:22:17;100844.38;;;15.95;46.68
48424;BME280;34232;42.502;26.014;2024-02-21T10:24:42;100841.09;;;16.30;47.30
48424;BME280;34232;42.502;26.014;2024-02-21T10:27:08;100831.13;;;16.51;44.82
48424;BME280;34232;42.502;26.014;2024-02-21T10:29:37;100825.53;;;16.54;45.83
48424;BME280;34232;42.502;26.014;2024-02-21T10:32:09;100822.50;;;16.76;45.23
48424;BME280;34232;42.502;26.014;2024-02-21T10:34:36;100819.94;;;16.48;44.26
48424;BME280;34232;42.502;26.014;2024-02-21T10:37:05;100813.28;;;16.34;44.60
48424;BME280;34232;42.502;26.014;2024-02-21T10:39:31;100812.34;;;16.16;44.79
48424;BME280;34232;42.502;26.014;2024-02-21T10:41:58;100809.84;;;15.95;45.40
48424;BME280;34232;42.502;26.014;2024-02-21T10:44:24;100803.44;;;15.97;47.00
48424;BME280;34232;42.502;26.014;2024-02-21T10:46:50;100804.94;;;16.09;46.30
48424;BME280;34232;42.502;26.014;2024-02-21T10:49:20;100799.50;;;16.48;44.31
48424;BME280;34232;42.502;26.014;2024-02-21T10:51:50;100793.72;;;16.90;43.03
48424;BME280;34232;42.502;26.014;2024-02-21T10:56:44;100793.03;;;17.15;41.67
48424;BME280;34232;42.502;26.014;2024-02-21T10:59:10;100784.53;;;16.84;41.30
48424;BME280;34232;42.502;26.014;2024-02-21T11:01:35;100787.44;;;16.63;42.51
48424;BME280;34232;42.502;26.014;2024-02-21T11:04:01;100789.81;;;16.20;43.94
48424;BME280;34232;42.502;26.014;2024-02-21T11:06:28;100781.16;;;16.18;43.80
48424;BME280;34232;42.502;26.014;2024-02-21T11:09:03;100774.81;;;15.82;44.99
48424;BME280;34232;42.502;26.014;2024-02-21T11:11:29;100774.25;;;15.49;45.93
48424;BME280;34232;42.502;26.014;2024-02-21T11:14:04;100767.56;;;15.55;45.49
48424;BME280;34232;42.502;26.014;2024-02-21T11:16:34;100767.84;;;15.71;45.53
48424;BME280;34232;42.502;26.014;2024-02-21T11:19:06;100759.69;;;15.92;45.16
48424;BME280;34232;42.502;26.014;2024-02-21T11:21:32;100761.22;;;15.94;44.18
48424;BME280;34232;42.502;26.014;2024-02-21T11:23:58;100753.75;;;16.17;42.94
48424;BME280;34232;42.502;26.014;2024-02-21T11:26:24;100748.59;;;16.43;42.10
48424;BME280;34232;42.502;26.014;2024-02-21T11:29:10;100744.06;;;16.63;42.16
48424;BME280;34232;42.502;26.014;2024-02-21T11:31:43;100746.28;;;16.67;42.04
48424;BME280;34232;42.502;26.014;2024-02-21T11:34:12;100745.56;;;16.38;41.18
48424;BME280;34232;42.502;26.014;2024-02-21T11:36:47;100736.13;;;16.53;40.80
48424;BME280;34232;42.502;26.014;2024-02-21T11:39:17;100734.81;;;16.30;41.22
48424;BME280;34232;42.502;26.014;2024-02-21T11:41:44;100729.91;;;16.35;41.03
48424;BME280;34232;42.502;26.014;2024-02-21T11:44:09;100735.59;;;16.40;40.92
48424;BME280;34232;42.502;26.014;2024-02-21T11:46:34;100729.22;;;16.33;40.25
48424;BME280;34232;42.502;26.014;2024-02-21T11:49:00;100729.91;;;16.35;41.12
48424;BME280;34232;42.502;26.014;2024-02-21T11:51:28;100725.66;;;16.42;42.67
48424;BME280;34232;42.502;26.014;2024-02-21T11:53:53;100722.84;;;16.53;42.15
48424;BME280;34232;42.502;26.014;2024-02-21T11:56:19;100718.03;;;16.66;41.53
48424;BME280;34232;42.502;26.014;2024-02-21T11:58:48;100724.41;;;16.73;41.26
48424;BME280;34232;42.502;26.014;2024-02-21T12:01:13;100708.44;;;16.73;41.94
48424;BME280;34232;42.502;26.014;2024-02-21T12:03:39;100710.13;;;16.74;40.86
48424;BME280;34232;42.502;26.014;2024-02-21T12:06:06;100707.09;;;16.69;41.31
48424;BME280;34232;42.502;26.014;2024-02-21T12:08:41;100702.69;;;16.51;39.85
48424;BME280;34232;42.502;26.014;2024-02-21T12:14:02;100696.56;;;16.23;39.89
48424;BME280;34232;42.502;26.014;2024-02-21T12:16:32;100695.75;;;16.40;39.26
48424;BME280;34232;42.502;26.014;2024-02-21T12:18:58;100701.25;;;16.56;39.96
48424;BME280;34232;42.502;26.014;2024-02-21T12:21:26;100700.59;;;16.54;40.49
48424;BME280;34232;42.502;26.014;2024-02-21T12:23:54;100704.91;;;16.55;40.47
48424;BME280;34232;42.502;26.014;2024-02-21T12:26:19;100695.28;;;16.54;40.07
48424;BME280;34232;42.502;26.014;2024-02-21T12:28:45;100691.91;;;16.52;40.06
48424;BME280;34232;42.502;26.014;2024-02-21T12:31:10;100691.13;;;16.42;39.98
48424;BME280;34232;42.502;26.014;2024-02-21T12:33:35;100687.69;;;16.32;39.66
48424;BME280;34232;42.502;26.014;2024-02-21T12:36:01;100697.53;;;16.22;40.46
48424;BME280;34232;42.502;26.014;2024-02-21T12:38:26;100700.56;;;15.99;40.95
48424;BME280;34232;42.502;26.014;2024-02-21T12:40:51;100696.97;;;15.91;40.50
48424;BME280;34232;42.502;26.014;2024-02-21T12:43:17;100698.19;;;15.96;39.65
48424;BME280;34232;42.502;26.014;2024-02-21T12:45:43;100697.94;;;15.90;39.78
48424;BME280;34232;42.502;26.014;2024-02-21T12:48:08;100691.78;;;15.89;39.04